Monday, February 18, 2019, 5:26 AM EST
Back to Local

KMVL, Morrisville Stowe State Airport

Location: Morrisville, VT, United States Lat: 44.533
Local Time: 5:26 AM EST (10:26 GMT) Lon: -72.617
Time Zone: US/Eastern Elev: 731 ft

Show me the last for .
Show Decoded

2019-02-18 04:54 METAR KMVL 180954Z AUTO 33003KT 10SM BKN046 OVC075 M11/M16 A2993 RMK AO2 SLP149
                 T11061156 =
2019-02-18 03:54 METAR KMVL 180854Z AUTO 33003KT 10SM BKN075 OVC095 M11/M14 A2994 RMK AO2 SLP153
                 T11111144 58013 =
2019-02-18 02:54 METAR KMVL 180754Z AUTO 00000KT 10SM OVC095 M12/M15 A2996 RMK AO2 SLP160
                 T11171150 =
2019-02-18 01:54 METAR KMVL 180654Z AUTO 36004KT 10SM OVC090 M11/M16 A2997 RMK AO2 SLP163
                 T11061156 =
2019-02-18 00:54 METAR KMVL 180554Z AUTO 00000KT 10SM OVC100 M11/M15 A2998 RMK AO2 SLP167
                 T11111150 11106 21133 58012 =
2019-02-17 23:54 METAR KMVL 180454Z AUTO 00000KT 10SM SCT100 M12/M15 A3001 RMK AO2 SLP178
                 T11221150 410441178 =
2019-02-17 22:54 METAR KMVL 180354Z AUTO 20003KT 10SM BKN100 M12/M14 A3003 RMK AO2 SLP185
                 T11171144 =
2019-02-17 21:54 METAR KMVL 180254Z AUTO 00000KT 10SM SCT120 M11/M15 A3002 RMK AO2 SLP181
                 T11111150 58011 =
2019-02-17 20:54 METAR KMVL 180154Z AUTO 00000KT 10SM CLR M12/M15 A3003 RMK AO2 SLP186 T11171150
                 =
2019-02-17 19:54 METAR KMVL 180054Z AUTO 00000KT 10SM CLR M12/M16 A3005 RMK AO2 SLP194 T11221156
                 =
2019-02-17 18:54 METAR KMVL 172354Z AUTO 00000KT 10SM CLR M11/M16 A3005 RMK AO2 SLP194 60000
                 T11111156 11044 21122 58006 =
2019-02-17 17:54 METAR KMVL 172254Z AUTO 00000KT 10SM CLR M09/M16 A3005 RMK AO2 SLP194 T10891156
                 =
2019-02-17 16:54 METAR KMVL 172154Z AUTO 35005KT 10SM CLR M07/M16 A3007 RMK AO2 SLP198 T10721156
                 =
2019-02-17 15:54 METAR KMVL 172054Z AUTO 01009KT 10SM CLR M06/M15 A3007 RMK AO2 SNB40E46 PRESFR
                 SLP197 P0000 60000 T10561150 56019 =
2019-02-17 14:54 METAR KMVL 171954Z AUTO 00000KT 10SM CLR M06/M15 A3010 RMK AO2 SLP208 T10561150
                 =
2019-02-17 13:54 METAR KMVL 171854Z AUTO 01003KT 10SM CLR M07/M15 A3008 RMK AO2 SNE26 SLP201
                 P0000 T10671150 =
2019-02-17 12:54 METAR KMVL 171754Z AUTO VRB04KT 9SM -SN CLR M07/M16 A3012 RMK AO2 SLP216 P0000
                 60000 T10671156 11067 21178 56015 =
2019-02-17 11:54 METAR KMVL 171654Z AUTO 01004KT 9SM -SN CLR M07/M16 A3014 RMK AO2 SNE18B41
                 SLP221 P0000 T10721156 =
2019-02-17 10:54 METAR KMVL 171554Z AUTO 06003KT 9SM -SN CLR M08/M16 A3015 RMK AO2 SLP225 P0000
                 T10831156 =
2019-02-17 09:54 METAR KMVL 171454Z AUTO 02006KT 9SM -SN CLR M10/M16 A3017 RMK AO2 SNB1356 SLP232
                 P0000 60000 T11001156 51013 =
2019-02-17 08:54 METAR KMVL 171354Z AUTO 03004KT 10SM CLR M12/M16 A3017 RMK AO2 SLP231 T11171161
                 =
2019-02-17 07:54 METAR KMVL 171254Z AUTO 05004KT 10SM CLR M14/M17 A3017 RMK AO2 SLP233 T11391167
                 =
2019-02-17 06:54 METAR KMVL 171154Z AUTO 00000KT 8SM CLR M17/M19 A3013 RMK AO2 SLP221 T11671189
                 11094 21172 53006 =
2019-02-17 06:04 METAR KMVL 171104Z AUTO 00000KT 10SM SCT025 M17/M18 A3012 RMK AO2 T11671178 =
2019-02-17 05:54 METAR KMVL 171054Z AUTO 00000KT 10SM BKN025 M16/M18 A3011 RMK AO2 SLP214
                 T11611178 =
2019-02-17 05:52 METAR KMVL 171052Z AUTO 00000KT 10SM BKN025 M16/M18 A3011 RMK AO2 =
2019-02-17 05:39 METAR KMVL 171039Z AUTO 00000KT 10SM SCT025 M17/M18 A3011 RMK AO2 T11671178 =

Support USWX by starting your Amazon purchase here.